Terminal Aerodrome Forecast
Issued by NWS

Home | Current Version | Previous Version | Text Only | Print | Product List | Glossary On
Versions: 1 2 3 4 5 6 7 8 9 10 11 12 13 14 15 16 17
000
FTUS42 KTBW 270538
TAFPIE
TAF
KPIE 270538Z 2706/2806 24008KT P6SM BKN015
      TEMPO 2706/2710 SCT015
     FM271300 29008KT P6SM VCSH SCT015 BKN025
      TEMPO 2713/2717 SCT025 BKN050
     FM271900 34008KT P6SM SCT030 BKN100
     FM280100 12006KT P6SM SCT020 SCT100 BKN250=

USA.gov is the U.S. government's official web portal to all federal, state and local government web resources and services.